sensor_id;sensor_type;location;lat;lon;timestamp;temperature;humidity
63445;DHT22;49573;47.682;9.170;2023-10-19T00:01:52;9.90;87.10
63445;DHT22;49573;47.682;9.170;2023-10-19T00:04:38;9.80;87.00
63445;DHT22;49573;47.682;9.170;2023-10-19T00:07:25;9.80;87.20
63445;DHT22;49573;47.682;9.170;2023-10-19T00:10:12;9.80;87.00
63445;DHT22;49573;47.682;9.170;2023-10-19T00:13:04;9.80;87.10
63445;DHT22;49573;47.682;9.170;2023-10-19T00:15:51;9.80;87.10
63445;DHT22;49573;47.682;9.170;2023-10-19T00:18:38;9.80;87.20
63445;DHT22;49573;47.682;9.170;2023-10-19T00:21:28;9.80;86.80
63445;DHT22;49573;47.682;9.170;2023-10-19T00:24:15;9.80;87.20
63445;DHT22;49573;47.682;9.170;2023-10-19T00:27:02;9.80;87.00
63445;DHT22;49573;47.682;9.170;2023-10-19T00:29:57;9.80;87.30
63445;DHT22;49573;47.682;9.170;2023-10-19T00:32:52;9.90;87.40
63445;DHT22;49573;47.682;9.170;2023-10-19T00:35:39;9.90;87.10
63445;DHT22;49573;47.682;9.170;2023-10-19T00:38:42;9.90;87.40
63445;DHT22;49573;47.682;9.170;2023-10-19T00:41:34;9.90;87.30
63445;DHT22;49573;47.682;9.170;2023-10-19T00:44:20;10.00;87.30
63445;DHT22;49573;47.682;9.170;2023-10-19T00:47:30;10.00;87.40
63445;DHT22;49573;47.682;9.170;2023-10-19T00:50:25;10.00;87.40
63445;DHT22;49573;47.682;9.170;2023-10-19T00:53:16;10.00;87.40
63445;DHT22;49573;47.682;9.170;2023-10-19T00:56:03;10.00;87.40
63445;DHT22;49573;47.682;9.170;2023-10-19T00:58:52;10.00;87.30
63445;DHT22;49573;47.682;9.170;2023-10-19T01:01:41;9.90;87.50
63445;DHT22;49573;47.682;9.170;2023-10-19T01:04:32;10.00;87.60
63445;DHT22;49573;47.682;9.170;2023-10-19T01:07:20;10.00;87.60
63445;DHT22;49573;47.682;9.170;2023-10-19T01:10:13;10.00;87.60
63445;DHT22;49573;47.682;9.170;2023-10-19T01:13:06;10.00;87.50
63445;DHT22;49573;47.682;9.170;2023-10-19T01:15:53;10.00;88.00
63445;DHT22;49573;47.682;9.170;2023-10-19T01:18:40;9.90;88.10
63445;DHT22;49573;47.682;9.170;2023-10-19T01:21:30;10.00;88.00
63445;DHT22;49573;47.682;9.170;2023-10-19T01:24:24;10.00;87.80
63445;DHT22;49573;47.682;9.170;2023-10-19T01:27:26;10.00;87.60
63445;DHT22;49573;47.682;9.170;2023-10-19T01:30:12;10.00;87.80
63445;DHT22;49573;47.682;9.170;2023-10-19T01:33:00;10.00;87.80
63445;DHT22;49573;47.682;9.170;2023-10-19T01:35:46;10.10;87.70
63445;DHT22;49573;47.682;9.170;2023-10-19T01:38:51;10.10;87.60
63445;DHT22;49573;47.682;9.170;2023-10-19T01:41:42;10.10;87.40
63445;DHT22;49573;47.682;9.170;2023-10-19T01:44:29;10.10;87.50
63445;DHT22;49573;47.682;9.170;2023-10-19T01:47:15;10.10;87.70
63445;DHT22;49573;47.682;9.170;2023-10-19T01:50:02;10.10;87.70
63445;DHT22;49573;47.682;9.170;2023-10-19T01:52:49;10.10;87.60
63445;DHT22;49573;47.682;9.170;2023-10-19T01:55:37;10.10;87.60
63445;DHT22;49573;47.682;9.170;2023-10-19T01:58:25;10.10;87.70
63445;DHT22;49573;47.682;9.170;2023-10-19T02:01:12;10.10;87.40
63445;DHT22;49573;47.682;9.170;2023-10-19T02:04:01;10.10;87.50
63445;DHT22;49573;47.682;9.170;2023-10-19T02:06:48;10.10;87.50
63445;DHT22;49573;47.682;9.170;2023-10-19T02:09:34;10.10;87.60
63445;DHT22;49573;47.682;9.170;2023-10-19T02:12:20;10.10;87.50
63445;DHT22;49573;47.682;9.170;2023-10-19T02:15:09;10.10;87.50
63445;DHT22;49573;47.682;9.170;2023-10-19T02:17:55;10.00;87.50
63445;DHT22;49573;47.682;9.170;2023-10-19T02:20:46;10.00;87.50
63445;DHT22;49573;47.682;9.170;2023-10-19T02:23:34;10.00;87.60
63445;DHT22;49573;47.682;9.170;2023-10-19T02:26:20;10.10;87.40
63445;DHT22;49573;47.682;9.170;2023-10-19T02:29:08;10.10;87.50
63445;DHT22;49573;47.682;9.170;2023-10-19T02:31:56;10.10;87.50
63445;DHT22;49573;47.682;9.170;2023-10-19T02:34:43;10.10;87.50
63445;DHT22;49573;47.682;9.170;2023-10-19T02:37:29;10.00;87.70
63445;DHT22;49573;47.682;9.170;2023-10-19T02:40:16;10.00;87.60
63445;DHT22;49573;47.682;9.170;2023-10-19T02:43:05;10.10;87.70
63445;DHT22;49573;47.682;9.170;2023-10-19T02:45:51;10.10;87.60
63445;DHT22;49573;47.682;9.170;2023-10-19T02:48:39;10.10;87.60
63445;DHT22;49573;47.682;9.170;2023-10-19T02:51:30;10.20;87.50
63445;DHT22;49573;47.682;9.170;2023-10-19T02:54:18;10.10;87.70
63445;DHT22;49573;47.682;9.170;2023-10-19T02:57:05;10.10;87.60
63445;DHT22;49573;47.682;9.170;2023-10-19T02:59:52;10.20;87.50
63445;DHT22;49573;47.682;9.170;2023-10-19T03:02:38;10.10;87.60
63445;DHT22;49573;47.682;9.170;2023-10-19T03:05:27;10.10;87.60
63445;DHT22;49573;47.682;9.170;2023-10-19T03:08:13;10.10;87.80
63445;DHT22;49573;47.682;9.170;2023-10-19T03:11:01;10.10;87.70
63445;DHT22;49573;47.682;9.170;2023-10-19T03:13:50;10.10;87.80
63445;DHT22;49573;47.682;9.170;2023-10-19T03:16:37;10.20;87.70
63445;DHT22;49573;47.682;9.170;2023-10-19T03:19:24;10.20;87.60
63445;DHT22;49573;47.682;9.170;2023-10-19T03:22:14;10.20;87.80
63445;DHT22;49573;47.682;9.170;2023-10-19T03:25:00;10.10;87.90
63445;DHT22;49573;47.682;9.170;2023-10-19T03:28:05;10.10;88.10
63445;DHT22;49573;47.682;9.170;2023-10-19T03:30:57;10.10;88.30
63445;DHT22;49573;47.682;9.170;2023-10-19T03:33:45;10.10;88.30
63445;DHT22;49573;47.682;9.170;2023-10-19T03:36:34;10.10;88.00
63445;DHT22;49573;47.682;9.170;2023-10-19T03:39:22;10.20;87.80
63445;DHT22;49573;47.682;9.170;2023-10-19T03:42:08;10.20;87.90
63445;DHT22;49573;47.682;9.170;2023-10-19T03:44:54;10.10;88.40
63445;DHT22;49573;47.682;9.170;2023-10-19T03:47:43;10.10;88.20
63445;DHT22;49573;47.682;9.170;2023-10-19T03:50:35;10.20;87.80
63445;DHT22;49573;47.682;9.170;2023-10-19T03:53:22;10.20;88.10
63445;DHT22;49573;47.682;9.170;2023-10-19T03:56:10;10.20;88.10
63445;DHT22;49573;47.682;9.170;2023-10-19T03:58:57;10.20;88.00
63445;DHT22;49573;47.682;9.170;2023-10-19T04:01:44;10.20;88.20
63445;DHT22;49573;47.682;9.170;2023-10-19T04:04:30;10.20;88.10
63445;DHT22;49573;47.682;9.170;2023-10-19T04:07:16;10.20;88.10
63445;DHT22;49573;47.682;9.170;2023-10-19T04:10:11;10.20;87.90
63445;DHT22;49573;47.682;9.170;2023-10-19T04:13:16;10.20;87.80
63445;DHT22;49573;47.682;9.170;2023-10-19T04:16:04;10.20;87.50
63445;DHT22;49573;47.682;9.170;2023-10-19T04:18:51;10.20;87.40
63445;DHT22;49573;47.682;9.170;2023-10-19T04:21:40;10.20;87.70
63445;DHT22;49573;47.682;9.170;2023-10-19T04:24:29;10.20;87.50
63445;DHT22;49573;47.682;9.170;2023-10-19T04:27:19;10.10;87.70
63445;DHT22;49573;47.682;9.170;2023-10-19T04:30:11;10.00;87.80
63445;DHT22;49573;47.682;9.170;2023-10-19T04:33:12;10.00;87.80
63445;DHT22;49573;47.682;9.170;2023-10-19T04:36:02;10.10;87.80
63445;DHT22;49573;47.682;9.170;2023-10-19T04:38:48;10.00;87.80
63445;DHT22;49573;47.682;9.170;2023-10-19T04:41:34;10.00;87.90
63445;DHT22;49573;47.682;9.170;2023-10-19T04:44:20;10.10;87.70
63445;DHT22;49573;47.682;9.170;2023-10-19T04:47:08;10.10;87.90
63445;DHT22;49573;47.682;9.170;2023-10-19T04:49:54;10.10;87.90
63445;DHT22;49573;47.682;9.170;2023-10-19T04:52:41;10.10;87.80
63445;DHT22;49573;47.682;9.170;2023-10-19T04:55:27;10.10;88.10
63445;DHT22;49573;47.682;9.170;2023-10-19T04:58:15;10.00;88.30
63445;DHT22;49573;47.682;9.170;2023-10-19T05:01:03;10.00;88.10
63445;DHT22;49573;47.682;9.170;2023-10-19T05:03:51;10.10;88.00
63445;DHT22;49573;47.682;9.170;2023-10-19T05:06:37;10.10;88.10
63445;DHT22;49573;47.682;9.170;2023-10-19T05:09:24;10.10;88.20
63445;DHT22;49573;47.682;9.170;2023-10-19T05:12:11;10.10;88.20
63445;DHT22;49573;47.682;9.170;2023-10-19T05:14:57;10.10;88.10
63445;DHT22;49573;47.682;9.170;2023-10-19T05:17:43;10.10;88.20
63445;DHT22;49573;47.682;9.170;2023-10-19T05:20:30;10.20;88.30
63445;DHT22;49573;47.682;9.170;2023-10-19T05:23:17;10.10;88.20
63445;DHT22;49573;47.682;9.170;2023-10-19T05:26:04;10.10;88.30
63445;DHT22;49573;47.682;9.170;2023-10-19T05:28:50;10.10;88.20
63445;DHT22;49573;47.682;9.170;2023-10-19T05:31:36;10.20;87.90
63445;DHT22;49573;47.682;9.170;2023-10-19T05:34:22;10.20;88.00
63445;DHT22;49573;47.682;9.170;2023-10-19T05:37:10;10.20;88.00
63445;DHT22;49573;47.682;9.170;2023-10-19T05:39:57;10.20;88.00
63445;DHT22;49573;47.682;9.170;2023-10-19T05:42:43;10.20;88.10
63445;DHT22;49573;47.682;9.170;2023-10-19T05:45:29;10.20;88.10
63445;DHT22;49573;47.682;9.170;2023-10-19T05:48:15;10.20;88.20
63445;DHT22;49573;47.682;9.170;2023-10-19T05:51:02;10.20;88.30
63445;DHT22;49573;47.682;9.170;2023-10-19T05:53:50;10.30;88.10
63445;DHT22;49573;47.682;9.170;2023-10-19T05:56:36;10.20;88.20
63445;DHT22;49573;47.682;9.170;2023-10-19T05:59:22;10.20;88.30
63445;DHT22;49573;47.682;9.170;2023-10-19T06:02:12;10.30;88.20
63445;DHT22;49573;47.682;9.170;2023-10-19T06:04:58;10.30;88.20
63445;DHT22;49573;47.682;9.170;2023-10-19T06:07:45;10.30;88.10
63445;DHT22;49573;47.682;9.170;2023-10-19T06:10:34;10.20;88.20
63445;DHT22;49573;47.682;9.170;2023-10-19T06:13:21;10.20;88.20
63445;DHT22;49573;47.682;9.170;2023-10-19T06:16:08;10.20;88.20
63445;DHT22;49573;47.682;9.170;2023-10-19T06:18:54;10.30;88.30
63445;DHT22;49573;47.682;9.170;2023-10-19T06:21:40;10.30;88.20
63445;DHT22;49573;47.682;9.170;2023-10-19T06:24:27;10.30;88.40
63445;DHT22;49573;47.682;9.170;2023-10-19T06:27:14;10.30;88.20
63445;DHT22;49573;47.682;9.170;2023-10-19T06:30:00;10.40;88.00
63445;DHT22;49573;47.682;9.170;2023-10-19T06:32:47;10.40;88.30
63445;DHT22;49573;47.682;9.170;2023-10-19T06:35:34;10.40;88.40
63445;DHT22;49573;47.682;9.170;2023-10-19T06:38:22;10.50;88.30
63445;DHT22;49573;47.682;9.170;2023-10-19T06:41:11;10.50;88.20
63445;DHT22;49573;47.682;9.170;2023-10-19T06:43:59;10.50;88.20
63445;DHT22;49573;47.682;9.170;2023-10-19T06:46:45;10.60;88.30
63445;DHT22;49573;47.682;9.170;2023-10-19T06:49:32;10.60;88.30
63445;DHT22;49573;47.682;9.170;2023-10-19T06:52:18;10.60;88.70
63445;DHT22;49573;47.682;9.170;2023-10-19T06:55:06;10.70;88.40
63445;DHT22;49573;47.682;9.170;2023-10-19T06:58:13;10.70;88.40
63445;DHT22;49573;47.682;9.170;2023-10-19T07:01:02;10.80;88.30
63445;DHT22;49573;47.682;9.170;2023-10-19T07:03:54;10.80;88.30
63445;DHT22;49573;47.682;9.170;2023-10-19T07:06:42;10.80;88.20
63445;DHT22;49573;47.682;9.170;2023-10-19T07:09:28;10.90;88.20
63445;DHT22;49573;47.682;9.170;2023-10-19T07:12:16;10.90;88.10
63445;DHT22;49573;47.682;9.170;2023-10-19T07:15:05;10.90;88.30
63445;DHT22;49573;47.682;9.170;2023-10-19T07:17:54;11.00;88.30
63445;DHT22;49573;47.682;9.170;2023-10-19T07:20:41;11.00;88.30
63445;DHT22;49573;47.682;9.170;2023-10-19T07:23:28;11.10;88.10
63445;DHT22;49573;47.682;9.170;2023-10-19T07:26:14;11.10;87.80
63445;DHT22;49573;47.682;9.170;2023-10-19T07:29:00;11.10;87.90
63445;DHT22;49573;47.682;9.170;2023-10-19T07:31:46;11.10;88.10
63445;DHT22;49573;47.682;9.170;2023-10-19T07:34:34;11.10;88.00
63445;DHT22;49573;47.682;9.170;2023-10-19T07:37:21;11.20;87.80
63445;DHT22;49573;47.682;9.170;2023-10-19T07:40:08;11.30;87.60
63445;DHT22;49573;47.682;9.170;2023-10-19T07:42:59;11.30;87.70
63445;DHT22;49573;47.682;9.170;2023-10-19T07:45:46;11.30;87.80
63445;DHT22;49573;47.682;9.170;2023-10-19T07:48:33;11.40;87.60
63445;DHT22;49573;47.682;9.170;2023-10-19T07:51:20;11.30;87.80
63445;DHT22;49573;47.682;9.170;2023-10-19T07:54:06;11.30;88.10
63445;DHT22;49573;47.682;9.170;2023-10-19T07:56:53;11.40;87.80
63445;DHT22;49573;47.682;9.170;2023-10-19T07:59:40;11.50;87.70
63445;DHT22;49573;47.682;9.170;2023-10-19T08:02:26;11.50;87.80
63445;DHT22;49573;47.682;9.170;2023-10-19T08:05:12;11.50;87.90
63445;DHT22;49573;47.682;9.170;2023-10-19T08:08:00;11.50;87.90
63445;DHT22;49573;47.682;9.170;2023-10-19T08:10:46;11.70;87.60
63445;DHT22;49573;47.682;9.170;2023-10-19T08:13:33;11.70;87.50
63445;DHT22;49573;47.682;9.170;2023-10-19T08:16:19;11.90;87.30
63445;DHT22;49573;47.682;9.170;2023-10-19T08:19:06;12.00;87.20
63445;DHT22;49573;47.682;9.170;2023-10-19T08:21:53;12.10;87.50
63445;DHT22;49573;47.682;9.170;2023-10-19T08:24:40;12.20;87.40
63445;DHT22;49573;47.682;9.170;2023-10-19T08:27:29;12.20;86.70
63445;DHT22;49573;47.682;9.170;2023-10-19T08:30:15;12.30;86.90
63445;DHT22;49573;47.682;9.170;2023-10-19T08:33:04;12.40;87.10
63445;DHT22;49573;47.682;9.170;2023-10-19T08:35:50;12.40;87.20
63445;DHT22;49573;47.682;9.170;2023-10-19T08:38:36;12.50;86.60
63445;DHT22;49573;47.682;9.170;2023-10-19T08:41:24;12.60;86.60
63445;DHT22;49573;47.682;9.170;2023-10-19T08:44:11;12.60;86.50
63445;DHT22;49573;47.682;9.170;2023-10-19T08:46:57;12.70;86.10
63445;DHT22;49573;47.682;9.170;2023-10-19T08:49:45;12.80;86.00
63445;DHT22;49573;47.682;9.170;2023-10-19T08:52:32;12.80;86.00
63445;DHT22;49573;47.682;9.170;2023-10-19T08:55:19;12.90;85.60
63445;DHT22;49573;47.682;9.170;2023-10-19T08:58:06;13.00;85.40
63445;DHT22;49573;47.682;9.170;2023-10-19T09:00:53;13.00;85.30
63445;DHT22;49573;47.682;9.170;2023-10-19T09:03:42;13.20;85.70
63445;DHT22;49573;47.682;9.170;2023-10-19T09:06:28;13.20;84.70
63445;DHT22;49573;47.682;9.170;2023-10-19T09:09:15;13.30;84.90
63445;DHT22;49573;47.682;9.170;2023-10-19T09:12:06;13.40;84.90
63445;DHT22;49573;47.682;9.170;2023-10-19T09:14:53;13.60;84.90
63445;DHT22;49573;47.682;9.170;2023-10-19T09:17:40;13.70;84.20
63445;DHT22;49573;47.682;9.170;2023-10-19T09:20:26;13.70;84.20
63445;DHT22;49573;47.682;9.170;2023-10-19T09:23:15;13.70;83.90
63445;DHT22;49573;47.682;9.170;2023-10-19T09:26:02;13.60;83.00
63445;DHT22;49573;47.682;9.170;2023-10-19T09:28:59;13.50;83.40
63445;DHT22;49573;47.682;9.170;2023-10-19T09:31:48;13.40;83.10
63445;DHT22;49573;47.682;9.170;2023-10-19T09:34:36;13.50;83.60
63445;DHT22;49573;47.682;9.170;2023-10-19T09:37:22;13.60;82.90
63445;DHT22;49573;47.682;9.170;2023-10-19T09:40:10;13.90;83.40
63445;DHT22;49573;47.682;9.170;2023-10-19T09:42:58;14.40;83.10
63445;DHT22;49573;47.682;9.170;2023-10-19T09:45:50;14.70;83.20
63445;DHT22;49573;47.682;9.170;2023-10-19T09:48:42;14.80;83.20
63445;DHT22;49573;47.682;9.170;2023-10-19T09:51:31;15.00;82.40
63445;DHT22;49573;47.682;9.170;2023-10-19T09:54:26;15.40;81.20
63445;DHT22;49573;47.682;9.170;2023-10-19T09:57:18;15.20;80.60
63445;DHT22;49573;47.682;9.170;2023-10-19T10:00:06;15.40;82.00
63445;DHT22;49573;47.682;9.170;2023-10-19T10:02:58;15.50;80.80
63445;DHT22;49573;47.682;9.170;2023-10-19T10:05:46;15.60;80.90
63445;DHT22;49573;47.682;9.170;2023-10-19T10:08:34;15.80;80.10
63445;DHT22;49573;47.682;9.170;2023-10-19T10:11:23;15.80;79.30
63445;DHT22;49573;47.682;9.170;2023-10-19T10:14:22;16.10;80.00
63445;DHT22;49573;47.682;9.170;2023-10-19T10:17:17;16.20;78.90
63445;DHT22;49573;47.682;9.170;2023-10-19T10:20:29;16.30;77.60
63445;DHT22;49573;47.682;9.170;2023-10-19T10:23:19;16.80;77.30
63445;DHT22;49573;47.682;9.170;2023-10-19T10:26:11;17.20;76.40
63445;DHT22;49573;47.682;9.170;2023-10-19T10:29:12;17.40;75.60
63445;DHT22;49573;47.682;9.170;2023-10-19T10:32:00;17.50;74.20
63445;DHT22;49573;47.682;9.170;2023-10-19T10:34:47;17.50;73.80
63445;DHT22;49573;47.682;9.170;2023-10-19T10:37:36;17.60;73.60
63445;DHT22;49573;47.682;9.170;2023-10-19T10:40:24;17.60;73.60
63445;DHT22;49573;47.682;9.170;2023-10-19T10:43:11;17.80;72.90
63445;DHT22;49573;47.682;9.170;2023-10-19T10:46:04;18.20;72.40
63445;DHT22;49573;47.682;9.170;2023-10-19T10:48:51;18.40;73.20
63445;DHT22;49573;47.682;9.170;2023-10-19T10:51:39;18.80;72.00
63445;DHT22;49573;47.682;9.170;2023-10-19T10:54:26;18.90;69.00
63445;DHT22;49573;47.682;9.170;2023-10-19T10:57:13;19.30;71.00
63445;DHT22;49573;47.682;9.170;2023-10-19T11:00:03;19.30;70.00
63445;DHT22;49573;47.682;9.170;2023-10-19T11:02:59;19.50;66.30
63445;DHT22;49573;47.682;9.170;2023-10-19T11:05:46;19.80;68.00
63445;DHT22;49573;47.682;9.170;2023-10-19T11:08:32;19.90;66.20
63445;DHT22;49573;47.682;9.170;2023-10-19T11:11:18;20.50;66.30
63445;DHT22;49573;47.682;9.170;2023-10-19T11:14:11;21.30;66.80
63445;DHT22;49573;47.682;9.170;2023-10-19T11:17:11;21.00;62.70
63445;DHT22;49573;47.682;9.170;2023-10-19T11:19:59;20.40;64.40
63445;DHT22;49573;47.682;9.170;2023-10-19T11:22:48;20.20;65.50
63445;DHT22;49573;47.682;9.170;2023-10-19T11:25:36;20.70;64.80
63445;DHT22;49573;47.682;9.170;2023-10-19T11:28:22;20.90;64.10
63445;DHT22;49573;47.682;9.170;2023-10-19T11:31:13;21.40;63.90
63445;DHT22;49573;47.682;9.170;2023-10-19T11:34:00;21.80;60.50
63445;DHT22;49573;47.682;9.170;2023-10-19T11:36:46;22.00;61.40
63445;DHT22;49573;47.682;9.170;2023-10-19T11:39:32;22.50;60.10
63445;DHT22;49573;47.682;9.170;2023-10-19T11:42:19;22.30;59.30
63445;DHT22;49573;47.682;9.170;2023-10-19T11:45:06;22.80;57.50
63445;DHT22;49573;47.682;9.170;2023-10-19T11:47:54;23.00;58.50
63445;DHT22;49573;47.682;9.170;2023-10-19T11:50:42;23.60;56.60
63445;DHT22;49573;47.682;9.170;2023-10-19T11:53:30;24.10;57.00
63445;DHT22;49573;47.682;9.170;2023-10-19T11:56:19;23.50;54.60
63445;DHT22;49573;47.682;9.170;2023-10-19T11:59:06;22.80;57.00
63445;DHT22;49573;47.682;9.170;2023-10-19T12:01:53;22.10;58.50
63445;DHT22;49573;47.682;9.170;2023-10-19T12:04:42;21.30;59.70
63445;DHT22;49573;47.682;9.170;2023-10-19T12:07:28;21.10;60.70
63445;DHT22;49573;47.682;9.170;2023-10-19T12:10:15;20.90;61.10
63445;DHT22;49573;47.682;9.170;2023-10-19T12:13:02;20.80;61.10
63445;DHT22;49573;47.682;9.170;2023-10-19T12:15:48;20.70;61.30
63445;DHT22;49573;47.682;9.170;2023-10-19T12:18:37;20.50;62.00
63445;DHT22;49573;47.682;9.170;2023-10-19T12:21:25;20.30;62.60
63445;DHT22;49573;47.682;9.170;2023-10-19T12:24:13;20.30;63.40
63445;DHT22;49573;47.682;9.170;2023-10-19T12:27:01;20.40;63.50
63445;DHT22;49573;47.682;9.170;2023-10-19T12:29:48;20.40;63.40
63445;DHT22;49573;47.682;9.170;2023-10-19T12:32:34;20.20;64.40
63445;DHT22;49573;47.682;9.170;2023-10-19T12:35:22;20.40;63.40
63445;DHT22;49573;47.682;9.170;2023-10-19T12:38:29;21.00;62.20
63445;DHT22;49573;47.682;9.170;2023-10-19T12:41:15;22.30;60.40
63445;DHT22;49573;47.682;9.170;2023-10-19T12:44:03;21.40;60.30
63445;DHT22;49573;47.682;9.170;2023-10-19T12:46:55;21.00;61.60
63445;DHT22;49573;47.682;9.170;2023-10-19T12:49:43;20.80;62.50
63445;DHT22;49573;47.682;9.170;2023-10-19T12:52:31;20.80;62.60
63445;DHT22;49573;47.682;9.170;2023-10-19T12:55:23;20.70;63.40
63445;DHT22;49573;47.682;9.170;2023-10-19T12:58:13;20.80;63.20
63445;DHT22;49573;47.682;9.170;2023-10-19T13:01:01;20.80;63.30
63445;DHT22;49573;47.682;9.170;2023-10-19T13:03:47;21.20;63.50
63445;DHT22;49573;47.682;9.170;2023-10-19T13:06:35;21.80;61.40
63445;DHT22;49573;47.682;9.170;2023-10-19T13:09:24;23.30;59.70
63445;DHT22;49573;47.682;9.170;2023-10-19T13:12:18;24.00;55.90
63445;DHT22;49573;47.682;9.170;2023-10-19T13:15:09;23.10;58.30
63445;DHT22;49573;47.682;9.170;2023-10-19T13:18:01;23.90;56.40
63445;DHT22;49573;47.682;9.170;2023-10-19T13:20:49;24.20;55.80
63445;DHT22;49573;47.682;9.170;2023-10-19T13:23:35;23.90;55.60
63445;DHT22;49573;47.682;9.170;2023-10-19T13:26:22;23.30;56.10
63445;DHT22;49573;47.682;9.170;2023-10-19T13:29:10;22.80;56.40
63445;DHT22;49573;47.682;9.170;2023-10-19T13:31:56;22.30;58.60
63445;DHT22;49573;47.682;9.170;2023-10-19T13:34:42;22.40;57.70
63445;DHT22;49573;47.682;9.170;2023-10-19T13:37:28;22.60;58.10
63445;DHT22;49573;47.682;9.170;2023-10-19T13:40:15;22.90;57.00
63445;DHT22;49573;47.682;9.170;2023-10-19T13:43:01;23.20;55.70
63445;DHT22;49573;47.682;9.170;2023-10-19T13:45:51;23.20;55.80
63445;DHT22;49573;47.682;9.170;2023-10-19T13:48:39;22.90;55.70
63445;DHT22;49573;47.682;9.170;2023-10-19T13:51:25;22.70;55.70
63445;DHT22;49573;47.682;9.170;2023-10-19T13:54:11;22.40;57.80
63445;DHT22;49573;47.682;9.170;2023-10-19T13:56:58;22.20;58.50
63445;DHT22;49573;47.682;9.170;2023-10-19T13:59:44;22.00;58.90
63445;DHT22;49573;47.682;9.170;2023-10-19T14:02:31;21.80;59.20
63445;DHT22;49573;47.682;9.170;2023-10-19T14:05:18;21.80;60.00
63445;DHT22;49573;47.682;9.170;2023-10-19T14:08:06;22.00;59.00
63445;DHT22;49573;47.682;9.170;2023-10-19T14:10:52;23.80;57.60
63445;DHT22;49573;47.682;9.170;2023-10-19T14:13:39;25.30;53.40
63445;DHT22;49573;47.682;9.170;2023-10-19T14:16:28;24.80;53.40
63445;DHT22;49573;47.682;9.170;2023-10-19T14:19:15;25.50;53.50
63445;DHT22;49573;47.682;9.170;2023-10-19T14:22:02;26.50;49.90
63445;DHT22;49573;47.682;9.170;2023-10-19T14:24:48;25.80;50.60
63445;DHT22;49573;47.682;9.170;2023-10-19T14:27:34;24.90;52.10
63445;DHT22;49573;47.682;9.170;2023-10-19T14:30:23;24.30;52.90
63445;DHT22;49573;47.682;9.170;2023-10-19T14:33:09;23.50;53.30
63445;DHT22;49573;47.682;9.170;2023-10-19T14:35:58;23.30;54.80
63445;DHT22;49573;47.682;9.170;2023-10-19T14:38:44;23.10;56.40
63445;DHT22;49573;47.682;9.170;2023-10-19T14:41:32;22.90;57.10
63445;DHT22;49573;47.682;9.170;2023-10-19T14:44:18;22.80;57.70
63445;DHT22;49573;47.682;9.170;2023-10-19T14:47:04;22.80;58.50
63445;DHT22;49573;47.682;9.170;2023-10-19T14:49:50;22.70;59.00
63445;DHT22;49573;47.682;9.170;2023-10-19T14:52:40;23.60;58.40
63445;DHT22;49573;47.682;9.170;2023-10-19T14:55:27;24.60;56.60
63445;DHT22;49573;47.682;9.170;2023-10-19T14:58:13;25.90;53.20
63445;DHT22;49573;47.682;9.170;2023-10-19T15:00:59;27.30;50.30
63445;DHT22;49573;47.682;9.170;2023-10-19T15:03:45;28.20;47.60
63445;DHT22;49573;47.682;9.170;2023-10-19T15:06:31;29.30;45.20
63445;DHT22;49573;47.682;9.170;2023-10-19T15:09:19;29.10;44.50
63445;DHT22;49573;47.682;9.170;2023-10-19T15:12:11;28.80;44.50
63445;DHT22;49573;47.682;9.170;2023-10-19T15:14:57;28.80;45.10
63445;DHT22;49573;47.682;9.170;2023-10-19T15:17:44;28.00;45.20
63445;DHT22;49573;47.682;9.170;2023-10-19T15:20:31;27.10;46.70
63445;DHT22;49573;47.682;9.170;2023-10-19T15:23:18;26.30;49.00
63445;DHT22;49573;47.682;9.170;2023-10-19T15:26:05;25.60;49.70
63445;DHT22;49573;47.682;9.170;2023-10-19T15:28:52;24.90;51.40
63445;DHT22;49573;47.682;9.170;2023-10-19T15:31:39;24.30;52.70
63445;DHT22;49573;47.682;9.170;2023-10-19T15:34:25;23.80;54.40
63445;DHT22;49573;47.682;9.170;2023-10-19T15:37:12;23.20;55.80
63445;DHT22;49573;47.682;9.170;2023-10-19T15:39:58;22.60;57.20
63445;DHT22;49573;47.682;9.170;2023-10-19T15:42:45;22.20;58.30
63445;DHT22;49573;47.682;9.170;2023-10-19T15:45:32;21.80;59.30
63445;DHT22;49573;47.682;9.170;2023-10-19T15:48:23;21.40;60.70
63445;DHT22;49573;47.682;9.170;2023-10-19T15:51:09;21.10;61.70
63445;DHT22;49573;47.682;9.170;2023-10-19T15:53:56;20.70;62.40
63445;DHT22;49573;47.682;9.170;2023-10-19T15:56:42;20.40;63.30
63445;DHT22;49573;47.682;9.170;2023-10-19T15:59:29;20.20;64.20
63445;DHT22;49573;47.682;9.170;2023-10-19T16:02:16;20.00;64.70
63445;DHT22;49573;47.682;9.170;2023-10-19T16:05:02;19.70;65.40
63445;DHT22;49573;47.682;9.170;2023-10-19T16:07:50;19.40;66.50
63445;DHT22;49573;47.682;9.170;2023-10-19T16:10:36;19.10;67.40
63445;DHT22;49573;47.682;9.170;2023-10-19T16:13:22;19.00;67.90
63445;DHT22;49573;47.682;9.170;2023-10-19T16:16:10;18.90;68.40
63445;DHT22;49573;47.682;9.170;2023-10-19T16:18:58;18.70;69.00
63445;DHT22;49573;47.682;9.170;2023-10-19T16:21:45;18.50;69.60
63445;DHT22;49573;47.682;9.170;2023-10-19T16:24:31;18.30;70.50
63445;DHT22;49573;47.682;9.170;2023-10-19T16:27:18;18.20;70.70
63445;DHT22;49573;47.682;9.170;2023-10-19T16:30:04;18.00;71.20
63445;DHT22;49573;47.682;9.170;2023-10-19T16:32:57;17.80;71.70
63445;DHT22;49573;47.682;9.170;2023-10-19T16:35:43;17.60;72.50
63445;DHT22;49573;47.682;9.170;2023-10-19T16:38:29;17.70;72.50
63445;DHT22;49573;47.682;9.170;2023-10-19T16:41:15;17.70;72.30
63445;DHT22;49573;47.682;9.170;2023-10-19T16:44:01;17.50;72.90
63445;DHT22;49573;47.682;9.170;2023-10-19T16:46:50;17.40;73.50
63445;DHT22;49573;47.682;9.170;2023-10-19T16:49:38;17.30;73.90
63445;DHT22;49573;47.682;9.170;2023-10-19T16:52:25;17.30;74.20
63445;DHT22;49573;47.682;9.170;2023-10-19T16:55:11;17.10;74.50
63445;DHT22;49573;47.682;9.170;2023-10-19T16:57:57;17.10;74.80
63445;DHT22;49573;47.682;9.170;2023-10-19T17:00:45;17.00;74.90
63445;DHT22;49573;47.682;9.170;2023-10-19T17:03:31;16.90;75.50
63445;DHT22;49573;47.682;9.170;2023-10-19T17:06:18;16.80;75.50
63445;DHT22;49573;47.682;9.170;2023-10-19T17:09:14;16.80;75.60
63445;DHT22;49573;47.682;9.170;2023-10-19T17:12:03;16.80;76.20
63445;DHT22;49573;47.682;9.170;2023-10-19T17:14:49;16.70;76.70
63445;DHT22;49573;47.682;9.170;2023-10-19T17:17:36;16.60;76.40
63445;DHT22;49573;47.682;9.170;2023-10-19T17:20:22;16.60;76.60
63445;DHT22;49573;47.682;9.170;2023-10-19T17:23:12;16.60;76.60
63445;DHT22;49573;47.682;9.170;2023-10-19T17:25:58;16.50;77.10
63445;DHT22;49573;47.682;9.170;2023-10-19T17:28:45;16.60;76.90
63445;DHT22;49573;47.682;9.170;2023-10-19T17:31:32;16.40;76.90
63445;DHT22;49573;47.682;9.170;2023-10-19T17:34:18;16.30;77.40
63445;DHT22;49573;47.682;9.170;2023-10-19T17:37:04;16.30;77.50
63445;DHT22;49573;47.682;9.170;2023-10-19T17:39:53;16.30;77.80
63445;DHT22;49573;47.682;9.170;2023-10-19T17:42:39;16.30;78.20
63445;DHT22;49573;47.682;9.170;2023-10-19T17:45:25;16.20;78.30